e-Mail: Password: Lost your password? Click here. - Register a new user

c h a v e z j u a r e z . c o m

Weather - Tiempo - Wetter - Temps

METAR DATA MMMX (Mexico City)

Mexico City / Licenci, Mexico (MMMX) 19-26N 099-06W
Dec 06, 2019 - 02:50 PM EST / 2019.12.06 1950 UTC
Wind: from the N (350 degrees) at 14 MPH (12 KT):0
Visibility: 10 mile(s):0
Sky conditions: clear
Temperature: 75 F (24 C)
Dew Point: 19 F (-7 C)
Relative Humidity: 12%
Pressure (altimeter): 30.34 in. Hg (1027 hPa)
ob: MMMX 061950Z 35012KT 10SM SKC 24/M07 A3034 NOSIG
cycle: 20

Mexico City

St. Prex




Current weather alarms for Switzerland


www.wetteralarm.ch